Segamat, Malaysia
Current Conditions -  °F | °C
As of 9:00 PM on Friday 24 Oct 2014 (Local Time) from WMKM Reporting Station
Broken Clouds Broken Clouds  
Wind Chill: 82°   Ceiling: 27000
Heat Index: 91°   Visibility: 6mi
Dew Point: 77°   Wind: 3mph
Humidity: 84%   Direction: 310°NW
Pressure: 29.85"   Gusts: NA
Location:  2.52°N, 102.81°E
Report Text: WMKM 241300Z 31003KT 9999 FEW028 SCT140 BKN270 28/25 Q1011
Loading
Personal Weather Stations






























Interactive Weather Map
Tropical Storm Tracking
New forecast layout! Learn more

10-Day Weather Forecast

Advertisements
Track Severe Weather on mobile